• Join FlightAware (Why Join?)
  • Login
  • US Flag 
08:38AM EST


 

Airport Tracker/Info


-or-


 

Live Flight TrackerFlight Track Log ✈ ASQ5941 ✈ 19-May-2013 ✈ KAVP - KORD

Flight Track Log - Related Links

Times and Time Zones

All times are in EDT time to prevent confusion due to time zone crossing. See the ASQ5941 flight status page for this flight to view local times or setup timezone preferences in your user account.

Time Position Orientation Groundspeed Altitude Reporting Facility
EDT Latitude Longitude Course Direction KTS MPH feet Rate Location/Type
05:44PM 41.2736 -75.7925 307° West 183 211 4,400  Level New York Center
05:45PM 41.3133 -75.8394 318° Northwest 126 145 6,600 1,750 Climbing New York Center
05:46PM 41.3828 -75.8697 342° North 178 205 7,900 1,576 Climbing New York Center
05:47PM 41.4340 -75.9513 304° West  Level FlightAware Approximate
05:47PM 41.4542 -75.9028 341° North 224 258 9,700  Level New York Center
05:48PM 41.4849 -76.0409 315° West  Level FlightAware Approximate
05:48PM 41.5339 -75.9394 341° North 258 297 10,700  Level New York Center
05:49PM 41.5430 -76.1229 312° West  Level FlightAware Approximate
05:49PM 41.6125 -76.0008 330° Northwest 312 359 11,400  Level New York Center
05:50PM 41.5979 -76.2089 307° West  Level FlightAware Approximate
05:50PM 41.6553 -76.1153 297° West 335 386 12,400  Level New York Center
05:51PM 41.6856 -76.2261 290° West 348 400 14,000 1,932 Climbing New York Center
05:52PM 41.7211 -76.3569 290° West 343 395 16,200 1,869 Climbing New York Center
05:53PM 41.7533 -76.4681 291° West 334 384 17,800 1,361 Climbing New York Center
05:54PM 41.7856 -76.5792 291° West 334 384 18,900 1,200 Climbing New York Center
05:55PM 41.8172 -76.6961 290° West 334 384 20,200 1,194 Climbing New York Center
05:57PM 41.8881 -76.9486 291° West 344 396 22,600 1,109 Climbing Cleveland Center
05:58PM 41.9208 -77.0694 290° West 344 396 23,600 1,200 Climbing Cleveland Center
05:59PM 41.9558 -77.1961 290° West 349 402 25,000 1,150 Climbing Cleveland Center
06:00PM 41.9867 -77.3203 289° West 349 402 25,900 850 Climbing Cleveland Center
06:01PM 42.0236 -77.4469 291° West 354 407 26,700 950 Climbing Cleveland Center
06:02PM 42.0561 -77.5711 289° West 359 413 27,800 1,050 Climbing Cleveland Center
06:03PM 42.0886 -77.7011 289° West 359 413 28,800 1,100 Climbing Cleveland Center
06:04PM 42.1228 -77.8256 290° West 359 413 30,000 1,200 Climbing Cleveland Center
06:05PM 42.1528 -77.9503 288° West 359 413 31,200 1,000 Climbing Cleveland Center
06:06PM 42.1869 -78.0778 290° West 359 413 32,000 400 Climbing Cleveland Center
06:07PM 42.2211 -78.2111 289° West 365 420 32,000  Level Cleveland Center
06:08PM 42.2572 -78.3500 289° West 381 438 32,000  Level Cleveland Center
06:09PM 42.2975 -78.4975 290° West 396 456 32,000  Level Cleveland Center
06:10PM 42.3336 -78.6508 288° West 418 481 32,000  Level Cleveland Center
06:11PM 42.3736 -78.8042 289° West 430 495 32,000 50 Level Cleveland Center
06:12PM 42.4067 -78.9353 289° West 430 495 32,100 450 Climbing Cleveland Center
06:13PM 42.4467 -79.1058 288° West 430 495 32,900 950 Climbing Cleveland Center
06:14PM 42.4836 -79.2431 290° West 417 480 34,000 550 Climbing Cleveland Center
06:15PM 42.5000 -79.3975 278° West 412 474 34,000  Level Cleveland Center
06:16PM 42.5053 -79.5214 273° West 412 474 34,000  Level Cleveland Center
06:17PM 42.5133 -79.7100 273° West 412 474 34,000  Level Cleveland Center
06:18PM 42.5206 -79.8592 274° West 412 474 34,000  Level Cleveland Center
06:19PM 42.5256 -80.0169 273° West 418 481 34,000  Level Cleveland Center
06:20PM 42.5303 -80.1550 273° West 418 481 34,000  Level Cleveland Center
06:21PM 42.5369 -80.3128 273° West 475 547 34,000  Level Cleveland Center
06:22PM 42.5436 -80.4647 273° West 441 507 34,000  Level Cleveland Center
06:23PM 42.5519 -80.6256 274° West 431 496 34,000  Level Cleveland Center
06:24PM 42.5581 -80.7833 273° West 420 483 34,000  Level Cleveland Center
06:25PM 42.5639 -80.9383 273° West 420 483 34,000  Level Cleveland Center
06:26PM 42.5675 -81.0964 272° West 420 483 34,000  Level Cleveland Center
06:27PM 42.5750 -81.2683 273° West 420 483 34,000  Level Cleveland Center
06:28PM 42.5800 -81.4292 272° West 427 491 34,000  Level Cleveland Center
06:29PM 42.6058 -81.5875 283° West 427 491 34,000  Level Cleveland Center
06:30PM 42.6356 -81.7458 284° West 427 491 34,000  Level Cleveland Center
06:31PM 42.6592 -81.8847 283° West 433 498 34,000  Level Cleveland Center
06:32PM 42.6844 -82.0406 282° West 433 498 34,000  Level Cleveland Center
06:33PM 42.7114 -82.1994 283° West 433 498 34,000  Level Cleveland Center
06:34PM 42.7403 -82.3614 284° West 433 498 34,000  Level Cleveland Center
06:35PM 42.7689 -82.5261 283° West 433 498 34,000  Level Cleveland Center
06:36PM 42.7953 -82.6911 282° West 439 505 34,000  Level Cleveland Center
06:37PM 42.8233 -82.8592 283° West 446 513 34,000  Level Cleveland Center
06:38PM 42.8450 -83.0242 280° West 452 520 34,000 -450 Level Cleveland Center
06:39PM 42.8494 -83.1972 272° West 452 520 33,100 -843 Descending Cleveland Center
06:40PM 42.8558 -83.3703 273° West 452 520 32,300 -550 Descending Cleveland Center
06:41PM 42.8600 -83.5347 272° West 452 520 32,000 -150 Descending Cleveland Center
06:42PM 42.8642 -83.6992 272° West 440 506 32,000  Level Cleveland Center
06:43PM 42.8658 -83.8608 271° West 440 506 32,000  Level Cleveland Center
06:44PM 42.8711 -84.0339 272° West 445 512 32,000  Level Cleveland Center
06:45PM 42.8744 -84.2014 272° West 450 518 32,000  Level Cleveland Center
06:46PM 42.8794 -84.3717 272° West 450 518 32,000  Level Cleveland Center
06:47PM 42.8819 -84.5419 271° West 450 518 32,000  Level Cleveland Center
06:49PM 42.8672 -84.7414 264° West 446 513 32,000  Level Chicago Center
06:50PM 42.8506 -84.9092 262° West 449 517 32,000  Level Chicago Center
06:51PM 42.8289 -85.1122 262° West 452 520 32,000 -48 Level Chicago Center
06:52PM 42.8025 -85.2803 258° West 454 522 31,900 -484 Descending Chicago Center
06:53PM 42.7728 -85.4444 256° West 448 516 31,000 -968 Descending Chicago Center
06:54PM 42.7422 -85.6103 256° West 447 514 29,900 -1,065 Descending Chicago Center
06:55PM 42.7114 -85.7786 256° West 453 521 28,800 -1,839 Descending Chicago Center
06:56PM 42.6797 -85.9458 256° West 454 522 26,100 -2,710 Descending Chicago Center
06:57PM 42.6500 -86.1103 256° West 450 518 23,200 -2,634 Descending Chicago Center
06:58PM 42.6203 -86.2644 255° West 431 496 20,700 -2,293 Descending Chicago Center
06:59PM 42.5856 -86.4400 255° West 404 465 18,500 -2,000 Descending Chicago Center
07:00PM 42.5592 -86.5786 256° West 385 443 16,500 -1,714 Descending Chicago Center
07:01PM 42.5328 -86.7131 255° West 371 427 14,900 -1,742 Descending Chicago Center
07:02PM 42.5061 -86.8522 255° West 378 435 12,900 -1,415 Descending Chicago Center
07:03PM 42.4817 -86.9753 255° West 348 400 12,000 -1,073 Descending Chicago Center
07:04PM 42.4611 -87.0742 254° West 285 328 10,700 -1,452 Descending Chicago Center
07:05PM 42.4336 -87.1894 252° West 271 312 9,000 -823 Descending Chicago Center
07:06PM 42.4069 -87.2839 249° West 271 312 9,000 -290 Level Chicago Center
07:07PM 42.3811 -87.3769 249° West 267 307 8,400 -871 Descending Chicago Center
07:08PM 42.3494 -87.4792 247° West 264 304 7,200 -677 Descending Chicago Center
07:09PM 42.3106 -87.5417 230° Southwest 258 297 7,000 -146 Descending Chicago Center
07:10PM 42.2500 -87.6178 223° Southwest 244 281 6,900 -537 Descending Chicago Center
07:11PM 42.2011 -87.6711 219° Southwest 229 264 5,900 -1,016 Descending Chicago Center
07:12PM 42.1608 -87.7161 220° Southwest 192 221 4,800 -968 Descending Chicago Center
07:13PM 42.1256 -87.7561 220° Southwest 171 197 3,900 -871 Descending Chicago Center